Time;durP1;ratioP1;P1;durP2;ratioP2;P2;SDS_P1;SDS_P2;PMS_P1;PMS_P2;Temp;Humidity;BMP_temperature;BMP_pressure;BME280_temperature;BME280_humidity;BME280_pressure;Samples;Min_cycle;Max_cycle;Signal;HPM_P1;HPM_P2
2022/10/18 00:00:48;;;;;;;1.33;1.23;;;;;;;14.03;100.00;102471.34;5044241;28;20033;-72
2022/10/18 00:03:13;;;;;;;1.40;1.30;;;;;;;14.05;100.00;102482.88;5058515;28;20033;-72
2022/10/18 00:05:38;;;;;;;0.50;0.50;;;;;;;13.93;100.00;102455.75;5060800;28;20028;-72
2022/10/18 00:08:04;;;;;;;1.40;1.30;;;;;;;13.91;100.00;102456.81;5044187;28;20033;-72
2022/10/18 00:10:29;;;;;;;0.40;0.40;;;;;;;13.99;100.00;102480.63;5060309;28;20036;-72
2022/10/18 00:12:54;;;;;;;0.20;0.20;;;;;;;13.95;100.00;102469.13;5065169;28;20482;-72
2022/10/18 00:15:20;;;;;;;0.10;0.10;;;;;;;13.92;100.00;102454.00;5059095;28;20032;-72
2022/10/18 00:17:45;;;;;;;0.10;0.10;;;;;;;14.13;100.00;102475.16;5046350;28;20071;-72
2022/10/18 00:20:11;;;;;;;0.10;0.10;;;;;;;14.22;100.00;102468.25;5047108;28;20068;-72
2022/10/18 00:22:38;;;;;;;0.10;0.10;;;;;;;14.27;100.00;102468.81;5056424;28;20408;-72
2022/10/18 00:25:04;;;;;;;0.00;0.00;;;;;;;14.30;100.00;102467.75;5025808;28;20040;-72
2022/10/18 00:27:30;;;;;;;0.00;0.00;;;;;;;14.31;100.00;102467.63;5068062;28;20748;-72
2022/10/18 00:29:56;;;;;;;0.10;0.10;;;;;;;14.38;100.00;102474.38;5047500;28;20029;-73
2022/10/18 00:32:21;;;;;;;0.00;0.00;;;;;;;14.36;100.00;102470.03;5062078;28;20036;-72
2022/10/18 00:34:46;;;;;;;0.00;0.00;;;;;;;14.36;100.00;102462.78;5065700;28;20448;-72
2022/10/18 00:37:12;;;;;;;0.10;0.10;;;;;;;14.38;100.00;102460.84;5069634;28;20058;-72
2022/10/18 00:39:37;;;;;;;0.03;0.03;;;;;;;14.45;100.00;102466.69;5063944;28;20021;-72
2022/10/18 00:42:03;;;;;;;0.10;0.10;;;;;;;14.39;100.00;102468.00;5031350;28;20048;-72
2022/10/18 00:44:28;;;;;;;0.10;0.10;;;;;;;14.44;100.00;102477.59;5056522;28;20033;-72
2022/10/18 00:47:04;;;;;;;0.10;0.10;;;;;;;14.40;100.00;102477.84;5063808;28;20032;-72
2022/10/18 00:49:32;;;;;;;0.05;0.05;;;;;;;14.37;100.00;102474.44;5046151;28;20029;-72
2022/10/18 00:52:16;;;;;;;0.00;0.00;;;;;;;14.25;100.00;102481.56;5042926;28;20487;-72
2022/10/18 00:54:42;;;;;;;;;;;;;;;14.12;100.00;102477.97;5028038;28;20028;-72
2022/10/18 00:57:07;;;;;;;0.08;0.08;;;;;;;14.09;100.00;102468.22;5051523;28;19954;-72
2022/10/18 00:59:33;;;;;;;0.00;0.00;;;;;;;14.06;100.00;102457.59;5044291;28;20031;-72
2022/10/18 01:02:00;;;;;;;0.10;0.10;;;;;;;14.12;100.00;102456.34;5062656;28;20036;-73
2022/10/18 01:04:25;;;;;;;0.00;0.00;;;;;;;14.10;100.00;102457.31;5063652;28;20032;-72
2022/10/18 01:07:13;;;;;;;0.00;0.00;;;;;;;14.14;100.00;102486.84;5068587;28;20430;-72
2022/10/18 01:10:16;;;;;;;0.00;0.00;;;;;;;14.15;100.00;102484.00;5045483;28;20093;-69
2022/10/18 01:12:54;;;;;;;0.10;0.10;;;;;;;14.23;100.00;102497.00;5058730;28;20045;-68
2022/10/18 01:15:26;;;;;;;0.10;0.10;;;;;;;14.20;100.00;102495.38;5054578;28;20020;-68
2022/10/18 01:18:06;;;;;;;0.08;0.08;;;;;;;14.17;100.00;102495.59;5041916;28;20581;-68
2022/10/18 01:21:06;;;;;;;0.10;0.10;;;;;;;14.12;100.00;102502.28;5058315;28;20024;-68
2022/10/18 01:24:08;;;;;;;0.00;0.00;;;;;;;14.11;100.00;102498.69;5065235;28;20032;-68
2022/10/18 01:26:43;;;;;;;0.00;0.00;;;;;;;14.10;100.00;102494.25;5070098;28;20027;-68
2022/10/18 01:29:30;;;;;;;0.00;0.00;;;;;;;14.14;100.00;102495.78;5061241;28;20032;-68
2022/10/18 01:32:02;;;;;;;0.10;0.10;;;;;;;14.14;100.00;102497.63;5065137;28;20954;-68
2022/10/18 01:34:30;;;;;;;0.10;0.10;;;;;;;14.12;100.00;102491.47;5047940;28;20447;-68
2022/10/18 01:36:56;;;;;;;0.10;0.10;;;;;;;14.01;100.00;102475.97;5042585;28;20048;-68
2022/10/18 01:39:32;;;;;;;0.00;0.00;;;;;;;14.05;100.00;102486.47;5051085;28;20039;-68
2022/10/18 01:41:58;;;;;;;0.00;0.00;;;;;;;14.07;100.00;102489.06;5044946;28;20031;-68
2022/10/18 01:44:26;;;;;;;0.10;0.10;;;;;;;13.86;100.00;102464.38;5036069;28;20064;-68
2022/10/18 01:46:53;;;;;;;0.10;0.10;;;;;;;13.93;100.00;102490.84;5047180;28;20045;-68
2022/10/18 01:49:19;;;;;;;0.93;0.93;;;;;;;13.84;100.00;102493.28;5048221;28;20032;-68
2022/10/18 01:51:44;;;;;;;0.40;0.40;;;;;;;13.79;100.00;102488.16;5066981;28;20074;-68
2022/10/18 01:54:12;;;;;;;0.10;0.10;;;;;;;13.69;100.00;102481.66;5047601;28;20067;-68
2022/10/18 01:56:57;;;;;;;0.10;0.10;;;;;;;13.69;100.00;102485.22;5045172;28;20032;-68
2022/10/18 01:59:58;;;;;;;0.17;0.17;;;;;;;13.75;100.00;102495.63;5042273;28;20087;-68
2022/10/18 02:02:32;;;;;;;0.00;0.00;;;;;;;13.84;100.00;102491.44;5038817;28;20069;-69
2022/10/18 02:05:19;;;;;;;0.10;0.10;;;;;;;13.82;100.00;102493.38;5055275;28;20474;-68
2022/10/18 02:08:02;;;;;;;0.10;0.10;;;;;;;13.87;100.00;102498.50;5055724;28;20063;-68
2022/10/18 02:10:34;;;;;;;0.10;0.10;;;;;;;13.97;100.00;102504.16;5053770;28;20028;-68
2022/10/18 02:13:00;;;;;;;0.00;0.00;;;;;;;14.03;100.00;102490.25;5026936;28;20025;-69
2022/10/18 02:15:31;;;;;;;0.00;0.00;;;;;;;14.08;100.00;102491.66;5037464;28;20074;-68
2022/10/18 02:17:57;;;;;;;0.00;0.00;;;;;;;14.02;100.00;102475.88;5043667;28;20058;-68
2022/10/18 02:20:24;;;;;;;0.10;0.10;;;;;;;14.08;100.00;102488.97;5059307;28;20103;-68
2022/10/18 02:22:50;;;;;;;0.10;0.10;;;;;;;14.04;100.00;102483.84;5044368;28;20439;-69
2022/10/18 02:25:20;;;;;;;0.00;0.00;;;;;;;14.17;100.00;102494.72;5038551;28;22013;-69
2022/10/18 02:27:46;;;;;;;0.00;0.00;;;;;;;14.20;100.00;102492.69;5048521;28;20040;-69
2022/10/18 02:30:11;;;;;;;0.00;0.00;;;;;;;14.23;100.00;102497.88;5068468;28;20081;-68
2022/10/18 02:32:45;;;;;;;0.10;0.10;;;;;;;14.11;100.00;102477.09;5023850;28;20055;-69
2022/10/18 02:35:19;;;;;;;0.10;0.10;;;;;;;14.15;100.00;102489.41;5042130;28;20028;-68
2022/10/18 02:37:46;;;;;;;0.10;0.10;;;;;;;14.20;100.00;102489.97;5041992;28;20093;-69
2022/10/18 02:40:12;;;;;;;0.00;0.00;;;;;;;14.20;100.00;102479.19;5043891;28;20032;-68
2022/10/18 02:42:43;;;;;;;0.10;0.10;;;;;;;14.20;100.00;102484.56;5059728;28;20062;-68
2022/10/18 02:45:09;;;;;;;0.05;0.05;;;;;;;14.08;100.00;102480.88;5042707;28;20032;-69
2022/10/18 02:47:35;;;;;;;0.00;0.00;;;;;;;14.08;100.00;102491.66;5057562;28;20048;-69
2022/10/18 02:50:00;;;;;;;0.10;0.10;;;;;;;13.82;100.00;102468.22;5038761;28;20116;-68
2022/10/18 02:52:25;;;;;;;0.60;0.60;;;;;;;13.86;100.00;102492.22;5059513;28;20028;-69
2022/10/18 02:54:50;;;;;;;0.10;0.10;;;;;;;13.92;100.00;102493.63;5058324;28;20029;-69
2022/10/18 02:57:16;;;;;;;0.00;0.00;;;;;;;13.98;100.00;102495.94;5027759;28;20463;-69
2022/10/18 02:59:41;;;;;;;0.03;0.03;;;;;;;14.00;100.00;102502.09;5040432;28;20024;-69
2022/10/18 03:02:06;;;;;;;0.10;0.10;;;;;;;13.95;100.00;102490.72;5054556;28;20050;-69
2022/10/18 03:04:32;;;;;;;0.10;0.10;;;;;;;13.92;100.00;102496.34;5040942;28;20068;-69
2022/10/18 03:06:57;;;;;;;0.10;0.10;;;;;;;13.94;100.00;102507.91;5056703;28;20353;-69
2022/10/18 03:09:22;;;;;;;0.00;0.00;;;;;;;13.90;100.00;102496.44;5063328;28;20107;-68
2022/10/18 03:11:48;;;;;;;0.00;0.00;;;;;;;14.06;100.00;102514.31;5056869;28;20036;-69
2022/10/18 03:14:13;;;;;;;0.00;0.00;;;;;;;13.96;100.00;102505.97;5063072;28;20024;-69
2022/10/18 03:16:38;;;;;;;0.10;0.10;;;;;;;13.98;100.00;102516.69;5054925;28;20027;-69
2022/10/18 03:19:04;;;;;;;0.00;0.00;;;;;;;14.01;100.00;102506.53;5062992;28;20108;-69
2022/10/18 03:21:29;;;;;;;0.00;0.00;;;;;;;14.04;100.00;102505.47;5040426;28;20529;-69
2022/10/18 03:23:55;;;;;;;0.00;0.00;;;;;;;14.08;100.00;102515.09;5054319;28;20196;-69
2022/10/18 03:26:20;;;;;;;0.00;0.00;;;;;;;14.14;100.00;102517.41;5028900;28;20070;-68
2022/10/18 03:28:46;;;;;;;0.00;0.00;;;;;;;14.16;100.00;102520.00;5059643;28;20033;-69
2022/10/18 03:31:11;;;;;;;0.00;0.00;;;;;;;14.19;100.00;102515.25;5041452;28;20043;-69
2022/10/18 03:33:36;;;;;;;0.10;0.10;;;;;;;14.25;100.00;102500.47;5034926;28;20098;-69
2022/10/18 03:36:02;;;;;;;0.10;0.10;;;;;;;14.31;100.00;102496.47;5058952;28;20123;-69
2022/10/18 03:38:27;;;;;;;0.10;0.10;;;;;;;14.34;100.00;102509.78;5057263;28;20033;-69
2022/10/18 03:40:52;;;;;;;0.10;0.10;;;;;;;14.35;100.00;102509.69;5069891;28;20035;-69
2022/10/18 03:43:18;;;;;;;0.10;0.10;;;;;;;14.39;100.00;102510.34;5059446;28;20064;-69
2022/10/18 03:45:43;;;;;;;0.20;0.20;;;;;;;14.28;100.00;102483.22;5059515;28;20422;-69
2022/10/18 03:48:08;;;;;;;0.10;0.10;;;;;;;14.43;100.00;102503.75;5067416;28;20019;-68
2022/10/18 03:50:34;;;;;;;0.20;0.20;;;;;;;14.35;100.00;102488.09;5044371;28;20031;-68
2022/10/18 03:52:59;;;;;;;0.10;0.10;;;;;;;14.44;100.00;102508.19;5051025;28;20027;-68
2022/10/18 03:55:24;;;;;;;0.10;0.10;;;;;;;14.42;100.00;102510.13;5062083;28;20229;-68
2022/10/18 03:57:50;;;;;;;0.20;0.20;;;;;;;14.38;100.00;102503.22;5064453;28;20062;-69
2022/10/18 04:00:15;;;;;;;0.10;0.10;;;;;;;14.41;100.00;102505.72;5046257;28;20081;-69
2022/10/18 04:02:41;;;;;;;0.10;0.10;;;;;;;14.44;100.00;102501.91;5060359;28;20074;-69
2022/10/18 04:05:06;;;;;;;0.20;0.20;;;;;;;14.44;100.00;102504.63;5060749;28;20032;-69
2022/10/18 04:07:33;;;;;;;0.20;0.20;;;;;;;14.33;100.00;102481.91;5045704;28;20055;-69
2022/10/18 04:09:58;;;;;;;0.30;0.30;;;;;;;14.42;100.00;102498.47;5042333;28;20068;-69
2022/10/18 04:12:24;;;;;;;0.20;0.20;;;;;;;14.36;100.00;102495.22;5041022;28;20539;-69
2022/10/18 04:14:49;;;;;;;0.55;0.55;;;;;;;14.33;100.00;102492.72;5061982;28;20537;-69
2022/10/18 04:17:14;;;;;;;0.20;0.20;;;;;;;14.22;100.00;102477.25;5038371;28;20060;-69
2022/10/18 04:19:40;;;;;;;0.20;0.20;;;;;;;14.29;100.00;102493.91;5044722;28;20107;-69
2022/10/18 04:22:06;;;;;;;0.30;0.30;;;;;;;14.28;100.00;102505.66;5061718;28;20462;-69
2022/10/18 04:24:31;;;;;;;0.55;0.55;;;;;;;14.26;100.00;102499.50;5062656;28;20444;-69
2022/10/18 04:26:56;;;;;;;0.10;0.10;;;;;;;14.34;100.00;102502.56;5050123;28;20036;-69
2022/10/18 04:29:21;;;;;;;0.10;0.10;;;;;;;14.34;100.00;102494.44;5045066;28;20039;-69
2022/10/18 04:31:47;;;;;;;0.50;0.50;;;;;;;14.38;100.00;102500.50;5055115;28;20044;-69
2022/10/18 04:34:12;;;;;;;0.68;0.68;;;;;;;14.36;100.00;102502.44;5047807;28;20032;-68
2022/10/18 04:36:37;;;;;;;0.50;0.50;;;;;;;14.38;100.00;102506.78;5063289;28;20507;-69
2022/10/18 04:39:03;;;;;;;0.30;0.30;;;;;;;14.37;100.00;102513.16;5069836;28;20545;-68
2022/10/18 04:41:28;;;;;;;0.30;0.30;;;;;;;14.28;100.00;102491.31;5063790;28;20036;-69
2022/10/18 04:43:53;;;;;;;0.20;0.20;;;;;;;14.28;100.00;102502.13;5048881;28;20476;-69
2022/10/18 04:46:19;;;;;;;0.50;0.50;;;;;;;14.39;100.00;102522.03;5064775;28;20064;-69
2022/10/18 04:48:44;;;;;;;0.13;0.13;;;;;;;14.39;100.00;102522.03;5069515;28;20082;-69
2022/10/18 04:51:09;;;;;;;0.30;0.30;;;;;;;14.33;100.00;102508.94;5063498;28;20467;-69
2022/10/18 04:53:35;;;;;;;0.35;0.35;;;;;;;14.33;100.00;102499.94;5070614;28;20035;-68
2022/10/18 04:56:00;;;;;;;0.30;0.30;;;;;;;14.37;100.00;102507.75;5063883;28;20036;-68
2022/10/18 04:58:26;;;;;;;0.60;0.60;;;;;;;14.34;100.00;102507.97;5058861;28;20060;-69
2022/10/18 05:00:51;;;;;;;0.70;0.70;;;;;;;14.37;100.00;102513.16;5051317;28;20033;-69
2022/10/18 05:03:16;;;;;;;0.10;0.10;;;;;;;14.39;100.00;102507.63;5029207;28;20041;-69
2022/10/18 05:05:44;;;;;;;0.10;0.10;;;;;;;14.39;100.00;102495.00;5066954;28;20138;-68
2022/10/18 05:08:09;;;;;;;0.63;0.63;;;;;;;14.37;100.00;102506.88;5063781;28;20035;-68
2022/10/18 05:10:34;;;;;;;0.20;0.20;;;;;;;14.34;100.00;102512.47;5064154;28;20028;-69
2022/10/18 05:13:00;;;;;;;0.60;0.60;;;;;;;14.28;100.00;102510.22;5058463;28;20311;-68
2022/10/18 05:15:25;;;;;;;0.82;0.82;;;;;;;14.27;100.00;102511.19;5063418;28;20060;-68
2022/10/18 05:17:50;;;;;;;0.22;0.22;;;;;;;14.25;100.00;102525.66;5056982;28;20037;-69
2022/10/18 05:20:16;;;;;;;0.50;0.50;;;;;;;14.27;100.00;102530.09;5057698;28;20033;-68
2022/10/18 05:22:41;;;;;;;0.30;0.30;;;;;;;14.20;100.00;102511.59;5060308;28;20032;-68
2022/10/18 05:25:07;;;;;;;0.60;0.60;;;;;;;14.26;100.00;102531.91;5043744;28;20064;-67
2022/10/18 05:27:32;;;;;;;0.40;0.40;;;;;;;14.24;100.00;102532.03;5066655;28;20021;-67
2022/10/18 05:29:58;;;;;;;0.38;0.38;;;;;;;14.25;100.00;102533.78;5064957;28;20063;-67
2022/10/18 05:32:23;;;;;;;0.10;0.10;;;;;;;14.27;100.00;102530.09;5062288;28;20024;-67
2022/10/18 05:34:49;;;;;;;0.10;0.10;;;;;;;14.23;100.00;102533.00;5063652;28;20024;-67
2022/10/18 05:37:14;;;;;;;0.00;0.00;;;;;;;14.21;100.00;102528.66;5063316;28;20090;-66
2022/10/18 05:39:39;;;;;;;0.10;0.10;;;;;;;14.25;100.00;102528.38;5061906;28;20040;-66
2022/10/18 05:42:05;;;;;;;0.30;0.30;;;;;;;14.28;100.00;102531.84;5045712;28;20482;-67
2022/10/18 05:44:31;;;;;;;0.30;0.30;;;;;;;14.28;100.00;102529.97;5037596;28;20032;-66
2022/10/18 05:46:56;;;;;;;0.20;0.20;;;;;;;14.29;100.00;102530.88;5059928;28;20065;-66
2022/10/18 05:49:22;;;;;;;0.30;0.30;;;;;;;14.30;100.00;102543.41;5059537;28;20037;-67
2022/10/18 05:51:47;;;;;;;0.10;0.10;;;;;;;14.28;100.00;102546.19;5045635;28;20564;-67
2022/10/18 05:54:13;;;;;;;0.10;0.10;;;;;;;14.17;100.00;102528.00;5059743;28;20067;-67
2022/10/18 05:56:38;;;;;;;0.38;0.38;;;;;;;14.21;100.00;102534.06;5057190;28;20035;-68
2022/10/18 05:59:08;;;;;;;0.22;0.22;;;;;;;14.14;100.00;102533.59;5043384;28;20503;-67
2022/10/18 06:01:34;;;;;;;0.50;0.50;;;;;;;14.12;100.00;102550.88;5060319;28;20036;-67
2022/10/18 06:03:59;;;;;;;0.20;0.20;;;;;;;14.13;100.00;102560.72;5060488;28;20025;-67
2022/10/18 06:06:24;;;;;;;0.40;0.40;;;;;;;13.95;100.00;102544.75;5061989;28;20028;-67
2022/10/18 06:08:50;;;;;;;0.20;0.20;;;;;;;14.06;100.00;102553.03;5044485;28;20036;-68
2022/10/18 06:11:17;;;;;;;0.52;0.52;;;;;;;14.07;100.00;102556.56;5059770;28;20051;-67
2022/10/18 06:13:48;;;;;;;0.35;0.35;;;;;;;14.02;100.00;102564.97;5061682;28;20038;-67
2022/10/18 06:16:15;;;;;;;0.30;0.30;;;;;;;13.99;100.00;102567.03;5044599;28;20032;-67
2022/10/18 06:18:41;;;;;;;0.60;0.60;;;;;;;14.03;100.00;102572.13;5043131;28;20024;-67
2022/10/18 06:21:07;;;;;;;0.40;0.40;;;;;;;14.06;100.00;102568.34;5044530;28;20032;-67
2022/10/18 06:23:32;;;;;;;0.30;0.30;;;;;;;14.08;100.00;102571.81;5041138;28;20380;-68
2022/10/18 06:26:03;;;;;;;0.50;0.50;;;;;;;14.04;100.00;102570.28;5039787;28;20036;-67
2022/10/18 06:28:29;;;;;;;0.20;0.20;;;;;;;14.08;100.00;102577.22;5047460;28;20028;-67
2022/10/18 06:30:55;;;;;;;0.45;0.45;;;;;;;14.06;100.00;102573.75;5046122;28;20739;-67
2022/10/18 06:33:21;;;;;;;0.35;0.35;;;;;;;14.05;100.00;102575.59;5059452;28;20025;-71
2022/10/18 06:35:59;;;;;;;0.57;0.57;;;;;;;14.05;100.00;102591.78;5065405;28;20024;-71
2022/10/18 06:38:26;;;;;;;0.40;0.40;;;;;;;14.06;100.00;102596.22;5048176;28;20035;-72
2022/10/18 06:40:51;;;;;;;0.50;0.50;;;;;;;13.95;100.00;102578.03;5055229;28;20029;-72
2022/10/18 06:43:16;;;;;;;0.40;0.40;;;;;;;13.94;100.00;102583.50;5047958;28;20036;-72
2022/10/18 06:45:42;;;;;;;0.30;0.30;;;;;;;14.01;100.00;102602.91;5063518;28;20387;-71
2022/10/18 06:48:07;;;;;;;0.50;0.50;;;;;;;14.01;100.00;102602.91;5064163;28;20032;-72
2022/10/18 06:50:32;;;;;;;0.20;0.20;;;;;;;13.99;100.00;102604.84;5046313;28;20055;-72
2022/10/18 06:52:57;;;;;;;0.30;0.30;;;;;;;14.00;100.00;102614.66;5046200;28;20066;-73
2022/10/18 06:55:23;;;;;;;0.70;0.70;;;;;;;13.92;100.00;102615.13;5060111;28;20028;-72
2022/10/18 06:57:48;;;;;;;0.10;0.10;;;;;;;13.92;100.00;102620.53;5062785;28;20122;-73
2022/10/18 07:00:14;;;;;;;0.20;0.20;;;;;;;13.91;100.00;102621.50;5065707;28;20021;-71
2022/10/18 07:02:40;;;;;;;0.20;0.20;;;;;;;13.86;100.00;102621.81;5059997;28;20085;-72
2022/10/18 07:05:08;;;;;;;0.10;0.10;;;;;;;13.77;100.00;102625.97;5064899;28;20036;-72
2022/10/18 07:07:34;;;;;;;0.30;0.30;;;;;;;13.75;100.00;102633.28;5062130;28;20111;-72
2022/10/18 07:09:59;;;;;;;0.20;0.20;;;;;;;13.74;100.00;102626.16;5066161;28;20028;-72
2022/10/18 07:12:24;;;;;;;0.30;0.30;;;;;;;13.62;100.00;102608.91;5055623;28;20472;-72
2022/10/18 07:14:50;;;;;;;0.30;0.30;;;;;;;13.77;100.00;102631.34;5067337;28;20154;-72
2022/10/18 07:17:15;;;;;;;0.20;0.20;;;;;;;13.74;100.00;102636.94;5050355;28;20478;-72
2022/10/18 07:19:40;;;;;;;0.30;0.30;;;;;;;13.78;100.00;102637.63;5045955;28;20105;-72
2022/10/18 07:22:05;;;;;;;0.20;0.20;;;;;;;13.83;100.00;102653.53;5045683;28;20435;-72
2022/10/18 07:24:31;;;;;;;0.30;0.30;;;;;;;13.86;100.00;102659.59;5062841;28;20063;-72
2022/10/18 07:26:56;;;;;;;0.20;0.20;;;;;;;13.78;100.00;102645.72;5046727;28;20032;-72
2022/10/18 07:29:21;;;;;;;0.20;0.20;;;;;;;13.80;100.00;102655.47;5064338;28;20107;-72
2022/10/18 07:31:47;;;;;;;0.30;0.30;;;;;;;13.89;100.00;102675.63;5062657;28;20033;-72
2022/10/18 07:34:13;;;;;;;0.20;0.20;;;;;;;13.87;100.00;102676.69;5063138;28;20032;-72
2022/10/18 07:36:38;;;;;;;0.20;0.20;;;;;;;13.75;100.00;102662.97;5066071;28;20169;-73
2022/10/18 07:39:03;;;;;;;0.20;0.20;;;;;;;13.85;100.00;102674.06;5063838;28;20056;-73
2022/10/18 07:41:32;;;;;;;0.20;0.20;;;;;;;13.71;100.00;102653.34;5033897;28;20233;-72
2022/10/18 07:43:57;;;;;;;0.20;0.20;;;;;;;13.84;100.00;102685.81;5046413;28;20029;-72
2022/10/18 07:46:23;;;;;;;0.10;0.10;;;;;;;13.78;100.00;102676.28;5061612;28;20070;-72
2022/10/18 07:48:48;;;;;;;0.10;0.10;;;;;;;13.86;100.00;102688.44;5046620;28;20032;-72
2022/10/18 07:51:14;;;;;;;0.10;0.10;;;;;;;13.78;100.00;102687.09;5050166;28;20028;-72
2022/10/18 07:53:39;;;;;;;0.20;0.20;;;;;;;13.82;100.00;102692.31;5060026;28;20078;-72
2022/10/18 07:56:14;;;;;;;0.10;0.10;;;;;;;13.90;100.00;102703.50;5058653;28;20406;-72
2022/10/18 07:58:40;;;;;;;0.15;0.15;;;;;;;13.80;100.00;102687.88;5058761;28;20028;-72
2022/10/18 08:01:07;;;;;;;0.10;0.10;;;;;;;14.00;100.00;102714.59;5034662;28;20024;-72
2022/10/18 08:03:32;;;;;;;0.10;0.10;;;;;;;13.99;100.00;102708.31;5057914;28;20033;-72
2022/10/18 08:05:58;;;;;;;0.20;0.20;;;;;;;14.01;100.00;102710.94;5061553;28;20105;-72
2022/10/18 08:08:25;;;;;;;0.20;0.20;;;;;;;14.07;100.00;102724.03;5043835;28;20028;-71
2022/10/18 08:10:51;;;;;;;0.10;0.10;;;;;;;14.10;100.00;102722.00;5065715;28;20040;-72
2022/10/18 08:13:16;;;;;;;0.10;0.10;;;;;;;14.20;100.00;102727.69;5045823;28;20025;-72
2022/10/18 08:15:42;;;;;;;0.10;0.10;;;;;;;14.28;100.00;102726.34;5044860;28;20032;-72
2022/10/18 08:18:08;;;;;;;0.10;0.10;;;;;;;14.32;100.00;102727.88;5043770;28;20090;-72
2022/10/18 08:20:35;;;;;;;0.10;0.10;;;;;;;14.31;100.00;102724.31;5058380;28;20024;-72
2022/10/18 08:23:00;;;;;;;0.20;0.20;;;;;;;14.22;100.00;102717.66;5045466;28;20040;-72
2022/10/18 08:25:25;;;;;;;0.20;0.20;;;;;;;14.17;100.00;102711.69;5030073;28;20051;-72
2022/10/18 08:27:51;;;;;;;0.10;0.10;;;;;;;14.15;100.00;102731.66;5049799;28;20078;-72
2022/10/18 08:30:16;;;;;;;0.10;0.10;;;;;;;14.06;100.00;102733.97;5045555;28;20037;-72
2022/10/18 08:32:41;;;;;;;0.10;0.10;;;;;;;13.86;100.00;102712.75;5057148;28;20028;-72
2022/10/18 08:35:07;;;;;;;0.10;0.10;;;;;;;14.01;100.00;102740.63;5043520;28;20021;-71
2022/10/18 08:37:32;;;;;;;0.20;0.20;;;;;;;13.93;100.00;102728.47;5045857;28;20036;-72
2022/10/18 08:39:58;;;;;;;0.10;0.10;;;;;;;14.19;100.00;102744.88;5026519;28;20040;-72
2022/10/18 08:42:32;;;;;;;0.20;0.20;;;;;;;14.28;100.00;102748.81;5061181;28;20410;-72
2022/10/18 08:44:58;;;;;;;0.17;0.17;;;;;;;14.39;100.00;102742.72;5058672;28;20037;-72
2022/10/18 08:47:38;;;;;;;0.20;0.20;;;;;;;14.32;100.00;102728.75;5045777;28;20028;-71
2022/10/18 08:50:29;;;;;;;0.10;0.10;;;;;;;14.50;100.00;102745.63;5048974;28;20024;-72
2022/10/18 08:53:04;;;;;;;0.20;0.20;;;;;;;14.61;100.00;102746.75;5049707;28;20102;-72
2022/10/18 08:55:45;;;;;;;0.20;0.20;;;;;;;14.76;100.00;102735.00;5058709;28;20395;-72
2022/10/18 08:58:20;;;;;;;0.10;0.10;;;;;;;15.19;100.00;102749.31;5043608;28;20055;-70
2022/10/18 09:00:53;;;;;;;0.10;0.10;;;;;;;15.43;100.00;102750.34;5047033;28;20488;-71
2022/10/18 09:03:28;;;;;;;0.05;0.05;;;;;;;15.34;100.00;102745.59;5040730;28;20055;-71
2022/10/18 09:06:00;;;;;;;0.10;0.10;;;;;;;15.28;100.00;102741.44;5060518;28;20154;-71
2022/10/18 09:08:34;;;;;;;0.10;0.10;;;;;;;15.29;100.00;102747.72;5043068;28;20024;-71
2022/10/18 09:11:09;;;;;;;0.10;0.10;;;;;;;15.46;100.00;102757.41;5061245;28;20039;-72
2022/10/18 09:14:12;;;;;;;0.20;0.20;;;;;;;15.44;100.00;102754.78;5044831;28;20523;-71
2022/10/18 09:16:50;;;;;;;0.10;0.10;;;;;;;15.48;100.00;102757.31;5058854;28;20020;-72
2022/10/18 09:19:30;;;;;;;0.10;0.10;;;;;;;15.62;100.00;102759.94;5058152;28;20032;-71
2022/10/18 09:22:13;;;;;;;0.13;0.13;;;;;;;15.91;100.00;102761.63;5064292;28;20032;-70
2022/10/18 09:24:56;;;;;;;0.10;0.10;;;;;;;15.99;100.00;102743.84;5060864;28;20032;-71
2022/10/18 09:27:31;;;;;;;0.10;0.10;;;;;;;16.37;100.00;102761.03;5053467;28;20032;-71
2022/10/18 09:30:01;;;;;;;0.20;0.20;;;;;;;16.68;100.00;102766.94;5060808;28;20048;-71
2022/10/18 09:32:52;;;;;;;0.10;0.10;;;;;;;16.98;100.00;102764.81;5064181;28;20532;-71
2022/10/18 09:35:20;;;;;;;0.10;0.10;;;;;;;16.92;100.00;102755.25;5049400;28;20039;-71
2022/10/18 09:37:46;;;;;;;0.10;0.10;;;;;;;16.81;100.00;102738.94;5049302;28;20439;-72
2022/10/18 09:40:18;;;;;;;0.10;0.10;;;;;;;17.32;100.00;102763.16;5067107;28;20042;-71
2022/10/18 09:42:58;;;;;;;0.10;0.10;;;;;;;17.41;100.00;102766.13;5047107;28;20074;-72
2022/10/18 09:45:39;;;;;;;0.05;0.05;;;;;;;17.63;100.00;102754.47;5063888;28;20558;-70
2022/10/18 09:48:25;;;;;;;0.00;0.00;;;;;;;17.77;100.00;102758.81;5065202;28;20037;-71
2022/10/18 09:50:56;;;;;;;0.10;0.10;;;;;;;18.13;100.00;102751.50;5044178;28;20044;-71
2022/10/18 09:53:21;;;;;;;0.10;0.10;;;;;;;18.28;100.00;102755.69;5030920;28;20392;-72
2022/10/18 09:55:57;;;;;;;0.10;0.10;;;;;;;18.33;100.00;102757.19;5066629;28;20464;-71
2022/10/18 09:58:24;;;;;;;0.10;0.10;;;;;;;18.29;100.00;102751.09;5050136;28;20065;-71
2022/10/18 10:00:50;;;;;;;0.00;0.00;;;;;;;18.49;100.00;102760.38;5046690;28;20020;-71
2022/10/18 10:03:15;;;;;;;0.00;0.00;;;;;;;18.63;96.20;102750.22;5043287;28;20410;-71
2022/10/18 10:05:42;;;;;;;0.10;0.10;;;;;;;18.91;98.24;102747.94;5047749;28;20040;-71
2022/10/18 10:08:07;;;;;;;0.00;0.00;;;;;;;19.29;96.57;102766.53;5049501;28;20024;-71
2022/10/18 10:10:33;;;;;;;0.03;0.03;;;;;;;19.72;99.51;102763.81;5065357;28;20024;-72
2022/10/18 10:13:24;;;;;;;0.10;0.10;;;;;;;20.10;93.37;102778.72;5023310;28;20032;-71
2022/10/18 10:15:55;;;;;;;0.10;0.10;;;;;;;20.34;89.68;102772.94;5046269;28;20024;-71
2022/10/18 10:18:24;;;;;;;0.10;0.10;;;;;;;20.57;89.07;102778.19;5032833;28;20032;-71
2022/10/18 10:20:51;;;;;;;0.05;0.05;;;;;;;20.84;90.12;102776.69;5047658;28;20025;-71
2022/10/18 10:23:36;;;;;;;0.00;0.00;;;;;;;20.98;82.05;102781.78;5048156;28;20028;-71
2022/10/18 10:26:24;;;;;;;0.00;0.00;;;;;;;21.06;76.31;102789.25;5042528;28;20025;-72
2022/10/18 10:28:50;;;;;;;0.10;0.10;;;;;;;21.16;76.44;102789.25;5045474;28;20040;-70
2022/10/18 10:31:29;;;;;;;0.00;0.00;;;;;;;21.22;81.05;102788.69;5043496;28;20077;-71
2022/10/18 10:34:00;;;;;;;0.00;0.00;;;;;;;21.65;83.18;102791.13;5039793;28;20467;-71
2022/10/18 10:36:26;;;;;;;0.03;0.03;;;;;;;21.80;69.17;102780.63;5063583;28;20032;-71
2022/10/18 10:39:22;;;;;;;0.10;0.10;;;;;;;22.08;71.69;102795.25;5044036;28;20060;-70
2022/10/18 10:41:52;;;;;;;0.00;0.00;;;;;;;22.23;73.63;102795.63;5023929;28;20496;-71
2022/10/18 10:44:19;;;;;;;0.05;0.05;;;;;;;22.62;68.79;102790.00;5044976;28;20075;-70
2022/10/18 10:46:47;;;;;;;0.00;0.00;;;;;;;22.92;64.68;102806.25;5043622;28;20752;-71
2022/10/18 10:49:18;;;;;;;0.00;0.00;;;;;;;22.89;62.35;102798.38;5044688;28;20043;-71
2022/10/18 10:51:44;;;;;;;0.10;0.10;;;;;;;23.06;63.54;102799.38;5025781;28;20031;-71
2022/10/18 10:54:16;;;;;;;0.00;0.00;;;;;;;23.19;60.37;102799.88;5048362;28;20032;-70
2022/10/18 10:57:00;;;;;;;0.00;0.00;;;;;;;23.48;57.38;102801.53;5045178;28;20032;-71
2022/10/18 10:59:28;;;;;;;0.00;0.00;;;;;;;23.64;60.48;102778.88;5043019;28;20028;-71
2022/10/18 11:02:14;;;;;;;0.10;0.10;;;;;;;23.85;54.04;102794.09;5045365;28;20036;-70
2022/10/18 11:04:40;;;;;;;0.00;0.00;;;;;;;23.98;54.67;102784.59;5060272;28;20396;-71
2022/10/18 11:07:41;;;;;;;0.00;0.00;;;;;;;24.41;53.83;102800.13;5047181;28;20036;-71
2022/10/18 11:10:09;;;;;;;0.00;0.00;;;;;;;24.74;53.42;102798.56;5037657;28;20024;-70
2022/10/18 11:12:39;;;;;;;0.00;0.00;;;;;;;24.76;51.44;102796.50;5052416;28;20028;-71
2022/10/18 11:15:17;;;;;;;0.05;0.05;;;;;;;25.10;51.39;102796.41;5057359;28;20040;-71
2022/10/18 11:18:01;;;;;;;0.00;0.00;;;;;;;25.43;47.20;102803.84;5045510;28;20032;-69
2022/10/18 11:20:34;;;;;;;0.00;0.00;;;;;;;25.98;48.15;102810.53;5040543;28;20043;-70
2022/10/18 11:23:10;;;;;;;0.00;0.00;;;;;;;26.42;46.01;102808.38;5048633;28;20362;-70
2022/10/18 11:26:01;;;;;;;0.08;0.08;;;;;;;27.35;42.87;102803.06;5063682;28;20028;-71
2022/10/18 11:28:35;;;;;;;0.10;0.10;;;;;;;27.46;43.11;102804.53;5045397;28;20028;-70